SEATTLE-TACOMA INTL

KSEA (SEA)
Seattle, Washington
Towered

Vatsim Metar:
KSEA 161531Z 00000KT 8SM BKN004 OVC010 03/02 A2980 RMK AO2 T00330017

No ATC Online

Traffic

Inbound:
Ident
Type
Name
ETA
Phase
DAL1947
B752/L
Lorenzo Nesta EGSS
Deplaning
CXA839
B739/W
Stephen Prendergast CYEE
16:05 Z
Descent
CLX36B
H/B744/L
Diogo Figueiredo ELLX
16:16 Z
Cruse
AZA035
H/B763/L
Lorenzo Rossi FAOT
16:29 Z
Descent
DAL1705
B752/L
Chris Woolbright KSDF
19:40 Z
Cruse

Outbound:
Ident
Type
Name
Destination
Phase